METAR Analyzer

List View

Hello, Guest. (Login)

RJCC/CTS  -  札幌/新千歳

Obs at
2022-09-30 05:00 (UTC) (22min ago)
Temp
21
Dew-pt
18
T-Td
3
RH
83%
QNH
1014.9hPa
Est. Station Pressure
1011.9hPa
Est. SLP
1014.8hPa
Feels like
12.6
(no wind)
21.8
HI
21.3
Temp chg in 24h
-1
Feels-like chg in 24h
-2.3
HI chg in 24h
-0.8
H-Vis
>10000m
V-Vis
No data
CIG
2000ft AGL
V/I
VMC (VFR)
RVR
No RVR data
Wind
15kt from 160°
Gust
No gust
Precipitation
Not reported
Other Wx
Not reported
Clouds
Few (1/8) Stratus @ 1000ft AGL / Broken (5/8) Cumulus @ 2000ft AGL

RJCC 300500Z 16015KT 9999 FEW010 BKN020 21/18 Q1015 RMK 1ST010 5CU020 A2997

RJTT/HND  -  東京/羽田

Obs at
2022-09-30 05:00 (UTC) (22min ago)
Temp
27
Dew-pt
19
T-Td
8
RH
61.6%
QNH
1014.9hPa
Est. Station Pressure
1014.2hPa
Est. SLP
1014.9hPa
Feels like
23
(no wind)
25.4
HI
28.2
Temp chg in 24h
+2
Feels-like chg in 24h
+4.7
HI chg in 24h
+3
H-Vis
>10000m
V-Vis
No data
CIG
No dense clouds
V/I
VMC (VFR)
RVR
No RVR data
Wind
2kt from VRB
Gust
No gust
Precipitation
Not reported
Other Wx
Not reported
Clouds
Few (1/8) Cumulus @ 3000ft AGL

RJTT 300500Z VRB02KT 9999 FEW030 27/19 Q1014 BECMG 08010KT RMK 1CU030 A2997

RJAA/NRT  -  東京/成田

Obs at
2022-09-30 05:00 (UTC) (22min ago)
Temp
27
Dew-pt
18
T-Td
9
RH
57.9%
QNH
1015.2hPa
Est. Station Pressure
1013.9hPa
Est. SLP
1015.2hPa
Feels like
20.6
(no wind)
25.1
HI
27.9
Temp chg in 24h
+2
Feels-like chg in 24h
+1.4
HI chg in 24h
+2.8
H-Vis
>10000m
V-Vis
No data
CIG
No dense clouds
V/I
VMC (VFR)
RVR
No RVR data
Wind
9kt from 60°
Gust
No gust
Precipitation
Not reported
Other Wx
Not reported
Clouds
Few (2/8) Cumulus @ 3500ft AGL

RJAA 300500Z 06009KT 9999 FEW035 27/18 Q1015 BECMG 08005KT RMK 2CU035 A2998

RJGG/NGO  -  名古屋/中部

Obs at
2022-09-30 05:00 (UTC) (22min ago)
Temp
25
Dew-pt
19
T-Td
6
RH
69.4%
QNH
1014.2hPa
Est. Station Pressure
1013.7hPa
Est. SLP
1014.2hPa
Feels like
19.1
(no wind)
24.4
HI
25.4
Temp chg in 24h
±0
Feels-like chg in 24h
-1.4
HI chg in 24h
+0.1
H-Vis
>10000m
V-Vis
No data
CIG
No dense clouds
V/I
VMC (VFR)
RVR
No RVR data
Wind
7kt from 220°
Gust
No gust
Precipitation
Not reported
Other Wx
Not reported
Clouds
Few (1/8) Cumulus @ 2500ft AGL

RJGG 300500Z 22007KT 9999 FEW025 25/19 Q1014 NOSIG RMK 1CU025 A2995

RJOO/ITM  -  大阪/伊丹

Obs at
2022-09-30 05:00 (UTC) (22min ago)
Temp
29
Dew-pt
17
T-Td
12
RH
48.4%
QNH
1013.2hPa
Est. Station Pressure
1011.8hPa
Est. SLP
1013.2hPa
Feels like
23
(no wind)
25.9
HI
29.5
Temp chg in 24h
+3
Feels-like chg in 24h
+3.7
HI chg in 24h
+3.6
H-Vis
>10000m
V-Vis
No data
CIG
No dense clouds
V/I
VMC (VFR)
RVR
No RVR data
Wind
5kt from 60° (20° ~ 100°)
Gust
No gust
Precipitation
Not reported
Other Wx
Not reported
Clouds
Few (2/8) Cumulus @ 2500ft AGL

RJOO 300500Z 06005KT 020V100 9999 FEW025 29/17 Q1013 RMK 2CU025 A2992

RJBB/KIX  -  大阪/関西

Obs at
2022-09-30 05:00 (UTC) (22min ago)
Temp
27
Dew-pt
20
T-Td
7
RH
65.6%
QNH
1013hPa
Est. Station Pressure
1012.4hPa
Est. SLP
1013.0hPa
Feels like
21.9
(no wind)
25.7
HI
28.5
Temp chg in 24h
+2
Feels-like chg in 24h
+3.1
HI chg in 24h
+3.3
H-Vis
>10000m
V-Vis
No data
CIG
No dense clouds
V/I
VMC (VFR)
RVR
No RVR data
Wind
5kt from 330°
Gust
No gust
Precipitation
Not reported
Other Wx
Not reported
Clouds
Few clouds @ 2000ft AGL

RJBB 300500Z 33005KT 9999 FEW020 27/20 Q1013 NOSIG

RJFF/FUK  -  福岡

Obs at
2022-09-30 05:00 (UTC) (22min ago)
Temp
27
Dew-pt
20
T-Td
7
RH
65.6%
QNH
1014.2hPa
Est. Station Pressure
1013.1hPa
Est. SLP
1014.1hPa
Feels like
21
(no wind)
25.7
HI
28.5
Temp chg in 24h
+2
Feels-like chg in 24h
+2.9
HI chg in 24h
+3.1
H-Vis
>10000m
V-Vis
No data
CIG
No dense clouds
V/I
VMC (VFR)
RVR
No RVR data
Wind
9kt from 300°
Gust
No gust
Precipitation
Not reported
Other Wx
Not reported
Clouds
Few (1/8) Cumulus @ 2000ft AGL

RJFF 300500Z 30009KT 9999 FEW020 27/20 Q1014 NOSIG RMK 1CU020 A2995

ROAH/OKA  -  那覇

Obs at
2022-09-30 05:00 (UTC) (22min ago)
Temp
30
Dew-pt
24
T-Td
6
RH
70.3%
QNH
1014.2hPa
Est. Station Pressure
1013.8hPa
Est. SLP
1014.1hPa
Feels like
24.8
(no wind)
28.3
HI
35.1
Temp chg in 24h
±0
Feels-like chg in 24h
-0.3
HI chg in 24h
-2.3
H-Vis
>10000m
V-Vis
No data
CIG
No dense clouds
V/I
VMC (VFR)
RVR
No RVR data
Wind
11kt from 350°
Gust
No gust
Precipitation
Not reported
Other Wx
Not reported
Clouds
Few (1/8) Cumulus @ 2000ft AGL

ROAH 300500Z 35011KT 9999 FEW020 30/24 Q1014 RMK 1CU020 A2995

891.6msec